sensor_id;sensor_type;location;lat;lon;timestamp;P1;durP1;ratioP1;P2;durP2;ratioP2
16804;SDS011;8520;50.102;20.010;2023-03-01T00:01:18;53.57;;;45.73;;
16804;SDS011;8520;50.102;20.010;2023-03-01T00:03:50;47.67;;;42.20;;
16804;SDS011;8520;50.102;20.010;2023-03-01T00:06:19;52.87;;;44.30;;
16804;SDS011;8520;50.102;20.010;2023-03-01T00:08:48;53.40;;;45.40;;
16804;SDS011;8520;50.102;20.010;2023-03-01T00:11:17;52.63;;;43.93;;
16804;SDS011;8520;50.102;20.010;2023-03-01T00:13:47;49.90;;;44.27;;
16804;SDS011;8520;50.102;20.010;2023-03-01T00:16:17;45.67;;;40.73;;
16804;SDS011;8520;50.102;20.010;2023-03-01T00:18:46;45.77;;;40.67;;
16804;SDS011;8520;50.102;20.010;2023-03-01T00:21:16;49.00;;;43.17;;
16804;SDS011;8520;50.102;20.010;2023-03-01T00:23:45;49.70;;;44.17;;
16804;SDS011;8520;50.102;20.010;2023-03-01T00:26:15;57.93;;;51.23;;
16804;SDS011;8520;50.102;20.010;2023-03-01T00:28:45;49.90;;;44.03;;
16804;SDS011;8520;50.102;20.010;2023-03-01T00:31:14;50.47;;;44.73;;
16804;SDS011;8520;50.102;20.010;2023-03-01T00:33:44;54.10;;;46.10;;
16804;SDS011;8520;50.102;20.010;2023-03-01T00:36:13;53.83;;;47.10;;
16804;SDS011;8520;50.102;20.010;2023-03-01T00:38:44;54.97;;;47.10;;
16804;SDS011;8520;50.102;20.010;2023-03-01T00:41:14;54.13;;;46.60;;
16804;SDS011;8520;50.102;20.010;2023-03-01T00:43:44;55.63;;;47.13;;
16804;SDS011;8520;50.102;20.010;2023-03-01T00:46:13;54.00;;;46.80;;
16804;SDS011;8520;50.102;20.010;2023-03-01T00:48:43;56.00;;;48.63;;
16804;SDS011;8520;50.102;20.010;2023-03-01T00:51:13;54.47;;;46.70;;
16804;SDS011;8520;50.102;20.010;2023-03-01T00:53:49;50.97;;;45.07;;
16804;SDS011;8520;50.102;20.010;2023-03-01T00:56:18;51.43;;;45.87;;
16804;SDS011;8520;50.102;20.010;2023-03-01T00:58:47;54.30;;;46.37;;
16804;SDS011;8520;50.102;20.010;2023-03-01T01:01:16;52.37;;;45.53;;
16804;SDS011;8520;50.102;20.010;2023-03-01T01:03:47;51.17;;;45.67;;
16804;SDS011;8520;50.102;20.010;2023-03-01T01:06:17;50.27;;;44.83;;
16804;SDS011;8520;50.102;20.010;2023-03-01T01:08:49;50.73;;;44.97;;
16804;SDS011;8520;50.102;20.010;2023-03-01T01:11:17;52.40;;;45.97;;
16804;SDS011;8520;50.102;20.010;2023-03-01T01:13:47;51.10;;;45.27;;
16804;SDS011;8520;50.102;20.010;2023-03-01T01:16:18;55.40;;;47.77;;
16804;SDS011;8520;50.102;20.010;2023-03-01T01:18:48;60.73;;;49.27;;
16804;SDS011;8520;50.102;20.010;2023-03-01T01:21:18;57.27;;;48.47;;
16804;SDS011;8520;50.102;20.010;2023-03-01T01:23:51;56.87;;;48.93;;
16804;SDS011;8520;50.102;20.010;2023-03-01T01:26:20;63.03;;;51.07;;
16804;SDS011;8520;50.102;20.010;2023-03-01T01:28:50;60.03;;;49.73;;
16804;SDS011;8520;50.102;20.010;2023-03-01T01:31:19;59.03;;;49.97;;
16804;SDS011;8520;50.102;20.010;2023-03-01T01:33:50;56.00;;;49.37;;
16804;SDS011;8520;50.102;20.010;2023-03-01T01:36:18;59.23;;;50.50;;
16804;SDS011;8520;50.102;20.010;2023-03-01T01:38:47;60.67;;;50.13;;
16804;SDS011;8520;50.102;20.010;2023-03-01T01:41:17;59.87;;;51.60;;
16804;SDS011;8520;50.102;20.010;2023-03-01T01:43:47;66.63;;;53.27;;
16804;SDS011;8520;50.102;20.010;2023-03-01T01:46:20;58.97;;;50.97;;
16804;SDS011;8520;50.102;20.010;2023-03-01T01:48:57;60.13;;;50.53;;
16804;SDS011;8520;50.102;20.010;2023-03-01T01:51:30;55.90;;;48.93;;
16804;SDS011;8520;50.102;20.010;2023-03-01T01:54:06;57.60;;;51.37;;
16804;SDS011;8520;50.102;20.010;2023-03-01T01:56:42;60.70;;;52.77;;
16804;SDS011;8520;50.102;20.010;2023-03-01T01:59:15;60.37;;;51.30;;
16804;SDS011;8520;50.102;20.010;2023-03-01T02:01:43;72.30;;;60.10;;
16804;SDS011;8520;50.102;20.010;2023-03-01T02:04:12;64.23;;;55.40;;
16804;SDS011;8520;50.102;20.010;2023-03-01T02:06:41;62.87;;;55.60;;
16804;SDS011;8520;50.102;20.010;2023-03-01T02:09:16;64.83;;;57.37;;
16804;SDS011;8520;50.102;20.010;2023-03-01T02:11:49;71.27;;;59.03;;
16804;SDS011;8520;50.102;20.010;2023-03-01T02:14:19;64.43;;;56.40;;
16804;SDS011;8520;50.102;20.010;2023-03-01T02:16:47;68.53;;;56.53;;
16804;SDS011;8520;50.102;20.010;2023-03-01T02:19:23;68.97;;;57.73;;
16804;SDS011;8520;50.102;20.010;2023-03-01T02:22:02;67.40;;;57.87;;
16804;SDS011;8520;50.102;20.010;2023-03-01T02:24:38;68.90;;;57.87;;
16804;SDS011;8520;50.102;20.010;2023-03-01T02:27:14;68.47;;;60.97;;
16804;SDS011;8520;50.102;20.010;2023-03-01T02:29:45;65.27;;;57.40;;
16804;SDS011;8520;50.102;20.010;2023-03-01T02:32:13;64.97;;;57.33;;
16804;SDS011;8520;50.102;20.010;2023-03-01T02:34:42;66.80;;;57.47;;
16804;SDS011;8520;50.102;20.010;2023-03-01T02:37:11;72.47;;;60.33;;
16804;SDS011;8520;50.102;20.010;2023-03-01T02:39:48;72.27;;;61.67;;
16804;SDS011;8520;50.102;20.010;2023-03-01T02:42:20;67.47;;;58.60;;
16804;SDS011;8520;50.102;20.010;2023-03-01T02:44:55;67.17;;;59.00;;
16804;SDS011;8520;50.102;20.010;2023-03-01T02:47:23;68.57;;;57.07;;
16804;SDS011;8520;50.102;20.010;2023-03-01T02:49:51;64.57;;;57.10;;
16804;SDS011;8520;50.102;20.010;2023-03-01T02:52:22;65.17;;;57.47;;
16804;SDS011;8520;50.102;20.010;2023-03-01T02:55:01;68.10;;;59.10;;
16804;SDS011;8520;50.102;20.010;2023-03-01T02:57:31;67.33;;;58.37;;
16804;SDS011;8520;50.102;20.010;2023-03-01T03:00:03;65.93;;;56.83;;
16804;SDS011;8520;50.102;20.010;2023-03-01T03:02:36;62.20;;;55.33;;
16804;SDS011;8520;50.102;20.010;2023-03-01T03:05:10;62.37;;;52.57;;
16804;SDS011;8520;50.102;20.010;2023-03-01T03:07:40;62.27;;;53.20;;
16804;SDS011;8520;50.102;20.010;2023-03-01T03:10:11;60.10;;;51.27;;
16804;SDS011;8520;50.102;20.010;2023-03-01T03:12:41;61.07;;;54.37;;
16804;SDS011;8520;50.102;20.010;2023-03-01T03:15:10;58.37;;;52.03;;
16804;SDS011;8520;50.102;20.010;2023-03-01T03:17:40;63.83;;;54.87;;
16804;SDS011;8520;50.102;20.010;2023-03-01T03:20:12;65.13;;;55.10;;
16804;SDS011;8520;50.102;20.010;2023-03-01T03:22:45;58.30;;;51.90;;
16804;SDS011;8520;50.102;20.010;2023-03-01T03:25:15;62.60;;;54.77;;
16804;SDS011;8520;50.102;20.010;2023-03-01T03:27:44;65.93;;;56.60;;
16804;SDS011;8520;50.102;20.010;2023-03-01T03:30:16;63.07;;;53.03;;
16804;SDS011;8520;50.102;20.010;2023-03-01T03:32:46;64.50;;;57.27;;
16804;SDS011;8520;50.102;20.010;2023-03-01T03:35:19;66.87;;;57.20;;
16804;SDS011;8520;50.102;20.010;2023-03-01T03:37:48;66.47;;;57.10;;
16804;SDS011;8520;50.102;20.010;2023-03-01T03:40:33;63.60;;;56.63;;
16804;SDS011;8520;50.102;20.010;2023-03-01T03:43:04;64.10;;;56.37;;
16804;SDS011;8520;50.102;20.010;2023-03-01T03:45:36;63.70;;;55.37;;
16804;SDS011;8520;50.102;20.010;2023-03-01T03:48:05;63.67;;;54.20;;
16804;SDS011;8520;50.102;20.010;2023-03-01T03:50:36;62.33;;;54.50;;
16804;SDS011;8520;50.102;20.010;2023-03-01T03:53:05;62.07;;;55.23;;
16804;SDS011;8520;50.102;20.010;2023-03-01T03:55:34;59.70;;;53.13;;
16804;SDS011;8520;50.102;20.010;2023-03-01T03:58:06;58.60;;;51.50;;
16804;SDS011;8520;50.102;20.010;2023-03-01T04:00:38;59.00;;;52.50;;
16804;SDS011;8520;50.102;20.010;2023-03-01T04:03:08;59.30;;;52.80;;
16804;SDS011;8520;50.102;20.010;2023-03-01T04:05:38;62.03;;;54.97;;
16804;SDS011;8520;50.102;20.010;2023-03-01T04:08:07;60.00;;;53.57;;
16804;SDS011;8520;50.102;20.010;2023-03-01T04:10:37;60.53;;;53.03;;
16804;SDS011;8520;50.102;20.010;2023-03-01T04:13:07;58.57;;;52.20;;
16804;SDS011;8520;50.102;20.010;2023-03-01T04:15:39;62.37;;;53.63;;
16804;SDS011;8520;50.102;20.010;2023-03-01T04:18:09;58.53;;;52.33;;
16804;SDS011;8520;50.102;20.010;2023-03-01T04:20:40;59.73;;;53.10;;
16804;SDS011;8520;50.102;20.010;2023-03-01T04:23:10;59.23;;;52.93;;
16804;SDS011;8520;50.102;20.010;2023-03-01T04:25:42;60.83;;;54.23;;
16804;SDS011;8520;50.102;20.010;2023-03-01T04:28:16;61.63;;;54.27;;
16804;SDS011;8520;50.102;20.010;2023-03-01T04:30:45;60.97;;;54.57;;
16804;SDS011;8520;50.102;20.010;2023-03-01T04:33:13;59.60;;;53.37;;
16804;SDS011;8520;50.102;20.010;2023-03-01T04:35:41;57.17;;;51.07;;
16804;SDS011;8520;50.102;20.010;2023-03-01T04:38:10;56.90;;;50.90;;
16804;SDS011;8520;50.102;20.010;2023-03-01T04:40:38;57.17;;;50.93;;
16804;SDS011;8520;50.102;20.010;2023-03-01T04:43:08;56.63;;;50.73;;
16804;SDS011;8520;50.102;20.010;2023-03-01T04:45:37;54.77;;;48.90;;
16804;SDS011;8520;50.102;20.010;2023-03-01T04:48:07;57.37;;;50.00;;
16804;SDS011;8520;50.102;20.010;2023-03-01T04:50:35;49.97;;;44.60;;
16804;SDS011;8520;50.102;20.010;2023-03-01T04:53:03;50.23;;;45.07;;
16804;SDS011;8520;50.102;20.010;2023-03-01T04:55:31;50.17;;;44.77;;
16804;SDS011;8520;50.102;20.010;2023-03-01T04:58:01;49.40;;;44.27;;
16804;SDS011;8520;50.102;20.010;2023-03-01T05:00:29;54.50;;;46.87;;
16804;SDS011;8520;50.102;20.010;2023-03-01T05:02:58;50.00;;;44.80;;
16804;SDS011;8520;50.102;20.010;2023-03-01T05:05:31;49.30;;;44.17;;
16804;SDS011;8520;50.102;20.010;2023-03-01T05:08:02;49.77;;;44.63;;
16804;SDS011;8520;50.102;20.010;2023-03-01T05:10:32;53.00;;;47.43;;
16804;SDS011;8520;50.102;20.010;2023-03-01T05:13:02;53.57;;;47.67;;
16804;SDS011;8520;50.102;20.010;2023-03-01T05:15:31;55.40;;;49.03;;
16804;SDS011;8520;50.102;20.010;2023-03-01T05:18:00;52.03;;;46.53;;
16804;SDS011;8520;50.102;20.010;2023-03-01T05:20:29;54.13;;;48.30;;
16804;SDS011;8520;50.102;20.010;2023-03-01T05:22:59;55.17;;;49.20;;
16804;SDS011;8520;50.102;20.010;2023-03-01T05:25:34;55.97;;;49.90;;
16804;SDS011;8520;50.102;20.010;2023-03-01T05:28:07;56.60;;;48.73;;
16804;SDS011;8520;50.102;20.010;2023-03-01T05:30:39;55.90;;;50.00;;
16804;SDS011;8520;50.102;20.010;2023-03-01T05:33:08;56.37;;;49.93;;
16804;SDS011;8520;50.102;20.010;2023-03-01T05:35:41;58.07;;;51.73;;
16804;SDS011;8520;50.102;20.010;2023-03-01T05:38:10;59.00;;;51.57;;
16804;SDS011;8520;50.102;20.010;2023-03-01T05:40:40;57.57;;;51.20;;
16804;SDS011;8520;50.102;20.010;2023-03-01T05:43:10;59.93;;;53.33;;
16804;SDS011;8520;50.102;20.010;2023-03-01T05:45:38;59.90;;;53.07;;
16804;SDS011;8520;50.102;20.010;2023-03-01T05:48:08;57.57;;;51.27;;
16804;SDS011;8520;50.102;20.010;2023-03-01T05:50:38;62.50;;;55.70;;
16804;SDS011;8520;50.102;20.010;2023-03-01T05:53:10;61.67;;;53.67;;
16804;SDS011;8520;50.102;20.010;2023-03-01T05:55:39;59.43;;;53.17;;
16804;SDS011;8520;50.102;20.010;2023-03-01T05:58:08;59.40;;;52.87;;
16804;SDS011;8520;50.102;20.010;2023-03-01T06:00:40;63.67;;;54.93;;
16804;SDS011;8520;50.102;20.010;2023-03-01T06:03:10;62.53;;;55.47;;
16804;SDS011;8520;50.102;20.010;2023-03-01T06:05:39;61.23;;;54.47;;
16804;SDS011;8520;50.102;20.010;2023-03-01T06:08:10;58.30;;;52.07;;
16804;SDS011;8520;50.102;20.010;2023-03-01T06:10:39;60.63;;;54.00;;
16804;SDS011;8520;50.102;20.010;2023-03-01T06:13:07;56.77;;;50.77;;
16804;SDS011;8520;50.102;20.010;2023-03-01T06:15:35;63.90;;;56.17;;
16804;SDS011;8520;50.102;20.010;2023-03-01T06:18:04;71.93;;;61.97;;
16804;SDS011;8520;50.102;20.010;2023-03-01T06:20:33;69.13;;;61.70;;
16804;SDS011;8520;50.102;20.010;2023-03-01T06:23:01;69.10;;;60.53;;
16804;SDS011;8520;50.102;20.010;2023-03-01T06:25:30;71.40;;;63.37;;
16804;SDS011;8520;50.102;20.010;2023-03-01T06:27:58;69.93;;;60.90;;
16804;SDS011;8520;50.102;20.010;2023-03-01T06:30:26;67.93;;;60.60;;
16804;SDS011;8520;50.102;20.010;2023-03-01T06:32:55;69.40;;;61.80;;
16804;SDS011;8520;50.102;20.010;2023-03-01T06:35:27;66.57;;;59.07;;
16804;SDS011;8520;50.102;20.010;2023-03-01T06:37:58;65.03;;;57.97;;
16804;SDS011;8520;50.102;20.010;2023-03-01T06:40:27;63.27;;;56.23;;
16804;SDS011;8520;50.102;20.010;2023-03-01T06:42:56;57.80;;;51.60;;
16804;SDS011;8520;50.102;20.010;2023-03-01T06:45:25;55.20;;;49.33;;
16804;SDS011;8520;50.102;20.010;2023-03-01T06:48:00;59.13;;;51.90;;
16804;SDS011;8520;50.102;20.010;2023-03-01T06:50:30;61.20;;;53.43;;
16804;SDS011;8520;50.102;20.010;2023-03-01T06:52:58;62.63;;;55.70;;
16804;SDS011;8520;50.102;20.010;2023-03-01T06:55:26;64.90;;;53.43;;
16804;SDS011;8520;50.102;20.010;2023-03-01T06:57:55;59.17;;;52.80;;
16804;SDS011;8520;50.102;20.010;2023-03-01T07:00:25;58.60;;;52.30;;
16804;SDS011;8520;50.102;20.010;2023-03-01T07:02:54;57.03;;;51.03;;
16804;SDS011;8520;50.102;20.010;2023-03-01T07:05:22;61.90;;;53.37;;
16804;SDS011;8520;50.102;20.010;2023-03-01T07:07:50;56.93;;;50.83;;
16804;SDS011;8520;50.102;20.010;2023-03-01T07:10:20;59.23;;;51.87;;
16804;SDS011;8520;50.102;20.010;2023-03-01T07:12:48;60.73;;;53.00;;
16804;SDS011;8520;50.102;20.010;2023-03-01T07:15:18;57.23;;;49.57;;
16804;SDS011;8520;50.102;20.010;2023-03-01T07:17:46;57.87;;;49.90;;
16804;SDS011;8520;50.102;20.010;2023-03-01T07:20:16;56.83;;;49.47;;
16804;SDS011;8520;50.102;20.010;2023-03-01T07:22:45;55.80;;;49.73;;
16804;SDS011;8520;50.102;20.010;2023-03-01T07:25:13;58.67;;;52.03;;
16804;SDS011;8520;50.102;20.010;2023-03-01T07:27:41;58.30;;;52.00;;
16804;SDS011;8520;50.102;20.010;2023-03-01T07:30:10;58.73;;;52.07;;
16804;SDS011;8520;50.102;20.010;2023-03-01T07:32:39;58.47;;;51.93;;
16804;SDS011;8520;50.102;20.010;2023-03-01T07:35:08;63.10;;;51.07;;
16804;SDS011;8520;50.102;20.010;2023-03-01T07:37:37;59.23;;;52.60;;
16804;SDS011;8520;50.102;20.010;2023-03-01T07:40:05;60.63;;;54.03;;
16804;SDS011;8520;50.102;20.010;2023-03-01T07:42:34;57.80;;;51.27;;
16804;SDS011;8520;50.102;20.010;2023-03-01T07:45:03;54.97;;;48.83;;
16804;SDS011;8520;50.102;20.010;2023-03-01T07:47:32;55.43;;;49.53;;
16804;SDS011;8520;50.102;20.010;2023-03-01T07:50:02;54.63;;;48.40;;
16804;SDS011;8520;50.102;20.010;2023-03-01T07:52:31;58.13;;;51.80;;
16804;SDS011;8520;50.102;20.010;2023-03-01T07:54:59;58.47;;;50.10;;
16804;SDS011;8520;50.102;20.010;2023-03-01T07:57:27;59.97;;;50.90;;
16804;SDS011;8520;50.102;20.010;2023-03-01T07:59:56;55.37;;;49.00;;
16804;SDS011;8520;50.102;20.010;2023-03-01T08:02:24;54.40;;;48.30;;
16804;SDS011;8520;50.102;20.010;2023-03-01T08:04:52;57.33;;;49.33;;
16804;SDS011;8520;50.102;20.010;2023-03-01T08:07:21;58.97;;;50.13;;
16804;SDS011;8520;50.102;20.010;2023-03-01T08:09:49;54.47;;;47.03;;
16804;SDS011;8520;50.102;20.010;2023-03-01T08:12:17;52.50;;;46.57;;
16804;SDS011;8520;50.102;20.010;2023-03-01T08:14:46;54.13;;;45.37;;
16804;SDS011;8520;50.102;20.010;2023-03-01T08:17:14;52.17;;;46.47;;
16804;SDS011;8520;50.102;20.010;2023-03-01T08:19:42;53.47;;;46.47;;
16804;SDS011;8520;50.102;20.010;2023-03-01T08:22:11;51.67;;;45.60;;
16804;SDS011;8520;50.102;20.010;2023-03-01T08:24:40;50.90;;;44.53;;
16804;SDS011;8520;50.102;20.010;2023-03-01T08:27:08;50.03;;;44.00;;
16804;SDS011;8520;50.102;20.010;2023-03-01T08:29:38;55.23;;;44.80;;
16804;SDS011;8520;50.102;20.010;2023-03-01T08:32:06;51.87;;;44.20;;
16804;SDS011;8520;50.102;20.010;2023-03-01T08:34:34;56.43;;;45.57;;
16804;SDS011;8520;50.102;20.010;2023-03-01T08:37:03;51.77;;;42.73;;
16804;SDS011;8520;50.102;20.010;2023-03-01T08:39:31;50.77;;;42.30;;
16804;SDS011;8520;50.102;20.010;2023-03-01T08:42:00;51.50;;;42.63;;
16804;SDS011;8520;50.102;20.010;2023-03-01T08:44:28;51.87;;;42.67;;
16804;SDS011;8520;50.102;20.010;2023-03-01T08:46:56;55.50;;;41.73;;
16804;SDS011;8520;50.102;20.010;2023-03-01T08:49:24;51.30;;;41.83;;
16804;SDS011;8520;50.102;20.010;2023-03-01T08:51:53;48.50;;;41.43;;
16804;SDS011;8520;50.102;20.010;2023-03-01T08:54:21;48.53;;;42.47;;
16804;SDS011;8520;50.102;20.010;2023-03-01T08:56:49;49.57;;;40.33;;
16804;SDS011;8520;50.102;20.010;2023-03-01T08:59:19;48.60;;;38.37;;
16804;SDS011;8520;50.102;20.010;2023-03-01T09:01:47;46.47;;;36.87;;
16804;SDS011;8520;50.102;20.010;2023-03-01T09:04:15;47.33;;;36.63;;
16804;SDS011;8520;50.102;20.010;2023-03-01T09:06:43;38.73;;;30.97;;
16804;SDS011;8520;50.102;20.010;2023-03-01T09:09:12;33.57;;;29.87;;
16804;SDS011;8520;50.102;20.010;2023-03-01T09:11:42;36.40;;;27.80;;
16804;SDS011;8520;50.102;20.010;2023-03-01T09:14:12;30.67;;;27.03;;
16804;SDS011;8520;50.102;20.010;2023-03-01T09:16:42;24.57;;;21.87;;
16804;SDS011;8520;50.102;20.010;2023-03-01T09:19:11;23.10;;;20.60;;
16804;SDS011;8520;50.102;20.010;2023-03-01T09:21:40;25.33;;;22.83;;
16804;SDS011;8520;50.102;20.010;2023-03-01T09:24:19;28.50;;;25.53;;
16804;SDS011;8520;50.102;20.010;2023-03-01T09:26:49;31.17;;;26.00;;
16804;SDS011;8520;50.102;20.010;2023-03-01T09:29:17;24.93;;;22.50;;
16804;SDS011;8520;50.102;20.010;2023-03-01T09:31:46;25.27;;;22.17;;
16804;SDS011;8520;50.102;20.010;2023-03-01T09:34:14;26.13;;;23.27;;
16804;SDS011;8520;50.102;20.010;2023-03-01T09:36:49;26.20;;;23.13;;
16804;SDS011;8520;50.102;20.010;2023-03-01T09:39:18;26.10;;;23.27;;
16804;SDS011;8520;50.102;20.010;2023-03-01T09:41:48;23.50;;;20.87;;
16804;SDS011;8520;50.102;20.010;2023-03-01T09:44:27;22.23;;;19.70;;
16804;SDS011;8520;50.102;20.010;2023-03-01T09:47:01;19.37;;;17.37;;
16804;SDS011;8520;50.102;20.010;2023-03-01T09:49:31;21.90;;;18.33;;
16804;SDS011;8520;50.102;20.010;2023-03-01T09:52:03;18.27;;;16.50;;
16804;SDS011;8520;50.102;20.010;2023-03-01T09:54:55;16.97;;;15.37;;
16804;SDS011;8520;50.102;20.010;2023-03-01T09:57:28;19.67;;;17.70;;
16804;SDS011;8520;50.102;20.010;2023-03-01T10:00:03;18.93;;;16.93;;
16804;SDS011;8520;50.102;20.010;2023-03-01T10:02:43;19.00;;;17.00;;
16804;SDS011;8520;50.102;20.010;2023-03-01T10:05:27;21.23;;;18.93;;
16804;SDS011;8520;50.102;20.010;2023-03-01T10:08:06;23.03;;;20.53;;
16804;SDS011;8520;50.102;20.010;2023-03-01T10:10:52;23.03;;;20.63;;
16804;SDS011;8520;50.102;20.010;2023-03-01T10:13:22;21.70;;;19.57;;
16804;SDS011;8520;50.102;20.010;2023-03-01T10:15:56;24.93;;;22.47;;
16804;SDS011;8520;50.102;20.010;2023-03-01T10:18:31;23.03;;;20.83;;
16804;SDS011;8520;50.102;20.010;2023-03-01T10:21:07;23.13;;;20.73;;
16804;SDS011;8520;50.102;20.010;2023-03-01T10:23:41;21.30;;;19.10;;
16804;SDS011;8520;50.102;20.010;2023-03-01T10:26:17;18.90;;;17.00;;
16804;SDS011;8520;50.102;20.010;2023-03-01T10:29:02;18.27;;;16.40;;
16804;SDS011;8520;50.102;20.010;2023-03-01T10:31:37;18.13;;;16.30;;
16804;SDS011;8520;50.102;20.010;2023-03-01T10:34:15;17.30;;;15.77;;
16804;SDS011;8520;50.102;20.010;2023-03-01T10:36:45;17.80;;;16.00;;
16804;SDS011;8520;50.102;20.010;2023-03-01T10:39:17;18.40;;;16.70;;
16804;SDS011;8520;50.102;20.010;2023-03-01T10:41:57;21.97;;;19.77;;
16804;SDS011;8520;50.102;20.010;2023-03-01T10:44:41;22.40;;;20.17;;
16804;SDS011;8520;50.102;20.010;2023-03-01T10:47:16;22.10;;;19.90;;
16804;SDS011;8520;50.102;20.010;2023-03-01T10:49:56;25.87;;;21.87;;
16804;SDS011;8520;50.102;20.010;2023-03-01T10:52:28;26.03;;;23.03;;
16804;SDS011;8520;50.102;20.010;2023-03-01T10:54:59;25.50;;;22.80;;
16804;SDS011;8520;50.102;20.010;2023-03-01T10:57:35;28.17;;;25.20;;
16804;SDS011;8520;50.102;20.010;2023-03-01T11:00:16;27.53;;;24.63;;
16804;SDS011;8520;50.102;20.010;2023-03-01T11:03:02;29.97;;;26.77;;
16804;SDS011;8520;50.102;20.010;2023-03-01T11:05:51;33.17;;;28.53;;
16804;SDS011;8520;50.102;20.010;2023-03-01T11:08:34;32.63;;;29.23;;
16804;SDS011;8520;50.102;20.010;2023-03-01T11:11:13;32.80;;;29.30;;
16804;SDS011;8520;50.102;20.010;2023-03-01T11:13:53;33.37;;;29.43;;
16804;SDS011;8520;50.102;20.010;2023-03-01T11:16:27;34.00;;;30.40;;
16804;SDS011;8520;50.102;20.010;2023-03-01T11:18:59;33.13;;;29.73;;
16804;SDS011;8520;50.102;20.010;2023-03-01T11:21:44;33.17;;;29.57;;
16804;SDS011;8520;50.102;20.010;2023-03-01T11:24:21;35.00;;;29.33;;
16804;SDS011;8520;50.102;20.010;2023-03-01T11:26:56;32.50;;;29.07;;
16804;SDS011;8520;50.102;20.010;2023-03-01T11:29:32;35.33;;;30.83;;
16804;SDS011;8520;50.102;20.010;2023-03-01T11:32:14;33.63;;;29.50;;
16804;SDS011;8520;50.102;20.010;2023-03-01T11:34:43;31.63;;;28.20;;
16804;SDS011;8520;50.102;20.010;2023-03-01T11:37:21;29.87;;;26.67;;
16804;SDS011;8520;50.102;20.010;2023-03-01T11:39:59;28.87;;;25.87;;
16804;SDS011;8520;50.102;20.010;2023-03-01T11:43:02;27.17;;;24.30;;
16804;SDS011;8520;50.102;20.010;2023-03-01T11:45:41;29.53;;;26.47;;
16804;SDS011;8520;50.102;20.010;2023-03-01T11:48:24;30.47;;;27.20;;
16804;SDS011;8520;50.102;20.010;2023-03-01T11:51:17;28.20;;;24.53;;
16804;SDS011;8520;50.102;20.010;2023-03-01T11:54:03;28.53;;;24.57;;
16804;SDS011;8520;50.102;20.010;2023-03-01T11:56:35;25.93;;;23.33;;
16804;SDS011;8520;50.102;20.010;2023-03-01T12:05:20;24.87;;;22.47;;
16804;SDS011;8520;50.102;20.010;2023-03-01T12:08:00;23.50;;;21.17;;
16804;SDS011;8520;50.102;20.010;2023-03-01T12:10:38;24.03;;;20.97;;
16804;SDS011;8520;50.102;20.010;2023-03-01T12:13:21;23.47;;;21.00;;
16804;SDS011;8520;50.102;20.010;2023-03-01T12:16:15;22.80;;;20.53;;
16804;SDS011;8520;50.102;20.010;2023-03-01T12:19:07;22.37;;;20.00;;
16804;SDS011;8520;50.102;20.010;2023-03-01T12:21:51;22.80;;;20.47;;
16804;SDS011;8520;50.102;20.010;2023-03-01T12:24:34;22.97;;;20.50;;
16804;SDS011;8520;50.102;20.010;2023-03-01T12:27:25;22.95;;;20.55;;
16804;SDS011;8520;50.102;20.010;2023-03-01T12:30:10;21.58;;;19.48;;
16804;SDS011;8520;50.102;20.010;2023-03-01T12:32:54;21.85;;;19.65;;
16804;SDS011;8520;50.102;20.010;2023-03-01T12:35:45;23.52;;;21.20;;
16804;SDS011;8520;50.102;20.010;2023-03-01T12:38:25;24.45;;;22.13;;
16804;SDS011;8520;50.102;20.010;2023-03-01T12:41:06;23.13;;;20.88;;
16804;SDS011;8520;50.102;20.010;2023-03-01T12:43:55;23.38;;;21.00;;
16804;SDS011;8520;50.102;20.010;2023-03-01T12:46:34;24.23;;;21.08;;
16804;SDS011;8520;50.102;20.010;2023-03-01T12:49:13;25.55;;;21.52;;
16804;SDS011;8520;50.102;20.010;2023-03-01T12:51:46;21.48;;;19.50;;
16804;SDS011;8520;50.102;20.010;2023-03-01T12:54:27;25.80;;;22.50;;
16804;SDS011;8520;50.102;20.010;2023-03-01T12:56:59;22.52;;;20.50;;
16804;SDS011;8520;50.102;20.010;2023-03-01T12:59:39;22.75;;;20.30;;
16804;SDS011;8520;50.102;20.010;2023-03-01T13:02:18;22.90;;;20.50;;
16804;SDS011;8520;50.102;20.010;2023-03-01T13:04:54;22.23;;;19.92;;
16804;SDS011;8520;50.102;20.010;2023-03-01T13:07:35;21.48;;;19.42;;
16804;SDS011;8520;50.102;20.010;2023-03-01T13:10:12;23.85;;;21.58;;
16804;SDS011;8520;50.102;20.010;2023-03-01T13:13:00;23.80;;;21.45;;
16804;SDS011;8520;50.102;20.010;2023-03-01T13:15:33;23.73;;;21.20;;
16804;SDS011;8520;50.102;20.010;2023-03-01T13:18:04;23.70;;;21.33;;
16804;SDS011;8520;50.102;20.010;2023-03-01T13:20:56;24.63;;;22.30;;
16804;SDS011;8520;50.102;20.010;2023-03-01T13:23:28;24.35;;;21.85;;
16804;SDS011;8520;50.102;20.010;2023-03-01T13:26:05;23.27;;;20.88;;
16804;SDS011;8520;50.102;20.010;2023-03-01T13:28:46;24.45;;;21.13;;
16804;SDS011;8520;50.102;20.010;2023-03-01T13:34:46;22.85;;;20.63;;
16804;SDS011;8520;50.102;20.010;2023-03-01T13:37:26;23.33;;;20.73;;
16804;SDS011;8520;50.102;20.010;2023-03-01T13:39:57;22.48;;;20.38;;
16804;SDS011;8520;50.102;20.010;2023-03-01T13:42:34;21.83;;;19.65;;
16804;SDS011;8520;50.102;20.010;2023-03-01T13:45:16;21.83;;;19.63;;
16804;SDS011;8520;50.102;20.010;2023-03-01T13:47:56;18.55;;;16.75;;
16804;SDS011;8520;50.102;20.010;2023-03-01T13:50:32;18.38;;;15.45;;
16804;SDS011;8520;50.102;20.010;2023-03-01T13:53:07;18.17;;;16.33;;
16804;SDS011;8520;50.102;20.010;2023-03-01T13:55:42;19.38;;;17.55;;
16804;SDS011;8520;50.102;20.010;2023-03-01T13:58:15;20.55;;;18.42;;
16804;SDS011;8520;50.102;20.010;2023-03-01T14:00:54;18.77;;;16.77;;
16804;SDS011;8520;50.102;20.010;2023-03-01T14:03:23;16.95;;;15.38;;
16804;SDS011;8520;50.102;20.010;2023-03-01T14:06:02;17.23;;;15.63;;
16804;SDS011;8520;50.102;20.010;2023-03-01T14:08:41;18.63;;;16.80;;
16804;SDS011;8520;50.102;20.010;2023-03-01T14:14:23;20.65;;;18.60;;
16804;SDS011;8520;50.102;20.010;2023-03-01T14:17:14;19.63;;;17.75;;
16804;SDS011;8520;50.102;20.010;2023-03-01T14:19:56;17.48;;;15.75;;
16804;SDS011;8520;50.102;20.010;2023-03-01T14:22:28;17.63;;;15.98;;
16804;SDS011;8520;50.102;20.010;2023-03-01T14:24:59;17.38;;;15.80;;
16804;SDS011;8520;50.102;20.010;2023-03-01T14:27:30;17.00;;;15.20;;
16804;SDS011;8520;50.102;20.010;2023-03-01T14:30:03;17.38;;;15.88;;
16804;SDS011;8520;50.102;20.010;2023-03-01T14:32:40;17.67;;;15.90;;
16804;SDS011;8520;50.102;20.010;2023-03-01T14:35:18;19.35;;;15.13;;
16804;SDS011;8520;50.102;20.010;2023-03-01T14:37:50;17.27;;;15.45;;
16804;SDS011;8520;50.102;20.010;2023-03-01T14:40:22;18.33;;;16.50;;
16804;SDS011;8520;50.102;20.010;2023-03-01T14:42:52;18.30;;;16.58;;
16804;SDS011;8520;50.102;20.010;2023-03-01T14:45:22;19.52;;;17.52;;
16804;SDS011;8520;50.102;20.010;2023-03-01T14:47:52;19.02;;;17.13;;
16804;SDS011;8520;50.102;20.010;2023-03-01T14:50:24;20.58;;;17.73;;
16804;SDS011;8520;50.102;20.010;2023-03-01T14:52:55;18.25;;;16.35;;
16804;SDS011;8520;50.102;20.010;2023-03-01T14:55:27;18.50;;;16.67;;
16804;SDS011;8520;50.102;20.010;2023-03-01T14:57:59;18.52;;;16.65;;
16804;SDS011;8520;50.102;20.010;2023-03-01T15:00:29;17.90;;;16.08;;
16804;SDS011;8520;50.102;20.010;2023-03-01T15:03:01;18.55;;;16.65;;
16804;SDS011;8520;50.102;20.010;2023-03-01T15:05:40;20.02;;;16.80;;